sensor_id;sensor_type;location;lat;lon;timestamp;P1;durP1;ratioP1;P2;durP2;ratioP2
56285;SDS011;42191;47.562;9.686;2023-05-07T00:00:10;34.20;;;32.03;;
56285;SDS011;42191;47.562;9.686;2023-05-07T00:02:40;32.42;;;30.42;;
56285;SDS011;42191;47.562;9.686;2023-05-07T00:05:06;32.40;;;30.40;;
56285;SDS011;42191;47.562;9.686;2023-05-07T00:07:33;32.13;;;30.13;;
56285;SDS011;42191;47.562;9.686;2023-05-07T00:09:59;34.08;;;32.08;;
56285;SDS011;42191;47.562;9.686;2023-05-07T00:12:25;32.92;;;30.95;;
56285;SDS011;42191;47.562;9.686;2023-05-07T00:14:51;31.67;;;29.48;;
56285;SDS011;42191;47.562;9.686;2023-05-07T00:17:17;33.78;;;31.67;;
56285;SDS011;42191;47.562;9.686;2023-05-07T00:19:44;34.22;;;32.08;;
56285;SDS011;42191;47.562;9.686;2023-05-07T00:22:10;34.50;;;32.42;;
56285;SDS011;42191;47.562;9.686;2023-05-07T00:24:36;33.22;;;31.02;;
56285;SDS011;42191;47.562;9.686;2023-05-07T00:27:02;33.72;;;31.65;;
56285;SDS011;42191;47.562;9.686;2023-05-07T00:29:28;33.55;;;31.35;;
56285;SDS011;42191;47.562;9.686;2023-05-07T00:31:54;33.33;;;31.23;;
56285;SDS011;42191;47.562;9.686;2023-05-07T00:34:20;34.25;;;31.88;;
56285;SDS011;42191;47.562;9.686;2023-05-07T00:36:47;34.30;;;32.25;;
56285;SDS011;42191;47.562;9.686;2023-05-07T00:39:13;34.20;;;32.20;;
56285;SDS011;42191;47.562;9.686;2023-05-07T00:41:39;33.40;;;31.33;;
56285;SDS011;42191;47.562;9.686;2023-05-07T00:44:06;33.40;;;31.30;;
56285;SDS011;42191;47.562;9.686;2023-05-07T00:46:32;31.98;;;30.08;;
56285;SDS011;42191;47.562;9.686;2023-05-07T00:48:59;35.53;;;33.33;;
56285;SDS011;42191;47.562;9.686;2023-05-07T00:51:25;33.55;;;31.55;;
56285;SDS011;42191;47.562;9.686;2023-05-07T00:53:53;34.30;;;32.28;;
56285;SDS011;42191;47.562;9.686;2023-05-07T00:56:20;31.95;;;30.05;;
56285;SDS011;42191;47.562;9.686;2023-05-07T00:58:48;32.17;;;30.17;;
56285;SDS011;42191;47.562;9.686;2023-05-07T01:01:14;34.80;;;32.53;;
56285;SDS011;42191;47.562;9.686;2023-05-07T01:03:41;33.88;;;31.77;;
56285;SDS011;42191;47.562;9.686;2023-05-07T01:06:07;34.80;;;32.70;;
56285;SDS011;42191;47.562;9.686;2023-05-07T01:08:36;34.03;;;31.90;;
56285;SDS011;42191;47.562;9.686;2023-05-07T01:11:04;34.80;;;32.55;;
56285;SDS011;42191;47.562;9.686;2023-05-07T01:13:31;34.92;;;32.83;;
56285;SDS011;42191;47.562;9.686;2023-05-07T01:15:58;34.70;;;32.60;;
56285;SDS011;42191;47.562;9.686;2023-05-07T01:18:25;33.15;;;31.15;;
56285;SDS011;42191;47.562;9.686;2023-05-07T01:20:51;32.20;;;30.30;;
56285;SDS011;42191;47.562;9.686;2023-05-07T01:23:19;33.28;;;31.27;;
56285;SDS011;42191;47.562;9.686;2023-05-07T01:25:52;33.63;;;31.63;;
56285;SDS011;42191;47.562;9.686;2023-05-07T01:28:19;34.42;;;32.33;;
56285;SDS011;42191;47.562;9.686;2023-05-07T01:30:51;33.65;;;31.63;;
56285;SDS011;42191;47.562;9.686;2023-05-07T01:33:21;32.63;;;30.63;;
56285;SDS011;42191;47.562;9.686;2023-05-07T01:35:48;33.90;;;31.90;;
56285;SDS011;42191;47.562;9.686;2023-05-07T01:38:17;34.40;;;32.30;;
56285;SDS011;42191;47.562;9.686;2023-05-07T01:40:44;33.50;;;31.50;;
56285;SDS011;42191;47.562;9.686;2023-05-07T01:43:11;33.40;;;31.30;;
56285;SDS011;42191;47.562;9.686;2023-05-07T01:45:37;34.35;;;32.20;;
56285;SDS011;42191;47.562;9.686;2023-05-07T01:48:04;34.80;;;32.70;;
56285;SDS011;42191;47.562;9.686;2023-05-07T01:50:32;33.38;;;31.27;;
56285;SDS011;42191;47.562;9.686;2023-05-07T01:52:58;34.50;;;32.40;;
56285;SDS011;42191;47.562;9.686;2023-05-07T01:55:26;33.00;;;31.00;;
56285;SDS011;42191;47.562;9.686;2023-05-07T01:57:52;34.75;;;32.65;;
56285;SDS011;42191;47.562;9.686;2023-05-07T02:00:18;34.10;;;31.80;;
56285;SDS011;42191;47.562;9.686;2023-05-07T02:02:45;34.22;;;32.13;;
56285;SDS011;42191;47.562;9.686;2023-05-07T02:05:11;34.22;;;32.03;;
56285;SDS011;42191;47.562;9.686;2023-05-07T02:07:37;35.08;;;32.90;;
56285;SDS011;42191;47.562;9.686;2023-05-07T02:10:03;32.95;;;30.95;;
56285;SDS011;42191;47.562;9.686;2023-05-07T02:12:30;34.72;;;32.45;;
56285;SDS011;42191;47.562;9.686;2023-05-07T02:14:56;32.92;;;30.98;;
56285;SDS011;42191;47.562;9.686;2023-05-07T02:17:22;32.65;;;30.67;;
56285;SDS011;42191;47.562;9.686;2023-05-07T02:19:48;31.27;;;29.17;;
56285;SDS011;42191;47.562;9.686;2023-05-07T02:22:14;35.45;;;33.15;;
56285;SDS011;42191;47.562;9.686;2023-05-07T02:24:40;34.20;;;32.13;;
56285;SDS011;42191;47.562;9.686;2023-05-07T02:27:07;34.55;;;32.15;;
56285;SDS011;42191;47.562;9.686;2023-05-07T02:29:33;31.48;;;29.58;;
56285;SDS011;42191;47.562;9.686;2023-05-07T02:31:59;34.65;;;32.55;;
56285;SDS011;42191;47.562;9.686;2023-05-07T02:34:25;35.10;;;32.95;;
56285;SDS011;42191;47.562;9.686;2023-05-07T02:36:51;33.17;;;31.10;;
56285;SDS011;42191;47.562;9.686;2023-05-07T02:39:17;34.22;;;32.22;;
56285;SDS011;42191;47.562;9.686;2023-05-07T02:41:43;34.42;;;32.33;;
56285;SDS011;42191;47.562;9.686;2023-05-07T02:44:10;34.80;;;32.65;;
56285;SDS011;42191;47.562;9.686;2023-05-07T02:46:36;33.90;;;31.90;;
56285;SDS011;42191;47.562;9.686;2023-05-07T02:49:02;33.15;;;31.10;;
56285;SDS011;42191;47.562;9.686;2023-05-07T02:51:29;34.30;;;32.30;;
56285;SDS011;42191;47.562;9.686;2023-05-07T02:53:55;33.58;;;31.38;;
56285;SDS011;42191;47.562;9.686;2023-05-07T02:56:22;34.60;;;32.38;;
56285;SDS011;42191;47.562;9.686;2023-05-07T02:58:50;35.75;;;33.55;;
56285;SDS011;42191;47.562;9.686;2023-05-07T03:01:16;33.15;;;31.15;;
56285;SDS011;42191;47.562;9.686;2023-05-07T03:03:42;34.55;;;32.42;;
56285;SDS011;42191;47.562;9.686;2023-05-07T03:06:09;35.25;;;33.15;;
56285;SDS011;42191;47.562;9.686;2023-05-07T03:08:35;32.92;;;30.83;;
56285;SDS011;42191;47.562;9.686;2023-05-07T03:11:01;32.90;;;30.80;;
56285;SDS011;42191;47.562;9.686;2023-05-07T03:13:28;33.38;;;31.38;;
56285;SDS011;42191;47.562;9.686;2023-05-07T03:15:54;34.40;;;32.38;;
56285;SDS011;42191;47.562;9.686;2023-05-07T03:18:20;33.10;;;31.02;;
56285;SDS011;42191;47.562;9.686;2023-05-07T03:20:47;34.97;;;32.88;;
56285;SDS011;42191;47.562;9.686;2023-05-07T03:23:13;34.33;;;32.03;;
56285;SDS011;42191;47.562;9.686;2023-05-07T03:25:39;33.55;;;31.48;;
56285;SDS011;42191;47.562;9.686;2023-05-07T03:28:06;35.13;;;33.03;;
56285;SDS011;42191;47.562;9.686;2023-05-07T03:30:32;34.15;;;32.05;;
56285;SDS011;42191;47.562;9.686;2023-05-07T03:32:58;33.28;;;31.33;;
56285;SDS011;42191;47.562;9.686;2023-05-07T03:35:24;32.55;;;30.60;;
56285;SDS011;42191;47.562;9.686;2023-05-07T03:37:51;32.80;;;30.80;;
56285;SDS011;42191;47.562;9.686;2023-05-07T03:40:17;33.47;;;31.48;;
56285;SDS011;42191;47.562;9.686;2023-05-07T03:42:43;34.22;;;32.22;;
56285;SDS011;42191;47.562;9.686;2023-05-07T03:45:09;32.13;;;30.13;;
56285;SDS011;42191;47.562;9.686;2023-05-07T03:47:35;32.65;;;30.65;;
56285;SDS011;42191;47.562;9.686;2023-05-07T03:50:01;34.10;;;32.03;;
56285;SDS011;42191;47.562;9.686;2023-05-07T03:52:28;35.78;;;33.67;;
56285;SDS011;42191;47.562;9.686;2023-05-07T03:54:54;32.03;;;30.10;;
56285;SDS011;42191;47.562;9.686;2023-05-07T03:57:20;36.35;;;34.05;;
56285;SDS011;42191;47.562;9.686;2023-05-07T03:59:46;33.85;;;31.85;;
56285;SDS011;42191;47.562;9.686;2023-05-07T04:02:12;34.45;;;32.45;;
56285;SDS011;42191;47.562;9.686;2023-05-07T04:04:38;33.10;;;31.10;;
56285;SDS011;42191;47.562;9.686;2023-05-07T04:07:05;34.13;;;32.08;;
56285;SDS011;42191;47.562;9.686;2023-05-07T04:09:32;35.95;;;33.70;;
56285;SDS011;42191;47.562;9.686;2023-05-07T04:11:58;33.63;;;31.63;;
56285;SDS011;42191;47.562;9.686;2023-05-07T04:14:24;33.05;;;31.15;;
56285;SDS011;42191;47.562;9.686;2023-05-07T04:16:50;34.60;;;32.30;;
56285;SDS011;42191;47.562;9.686;2023-05-07T04:19:16;33.33;;;31.33;;
56285;SDS011;42191;47.562;9.686;2023-05-07T04:21:43;33.92;;;31.83;;
56285;SDS011;42191;47.562;9.686;2023-05-07T04:24:09;34.88;;;32.80;;
56285;SDS011;42191;47.562;9.686;2023-05-07T04:26:35;34.63;;;32.58;;
56285;SDS011;42191;47.562;9.686;2023-05-07T04:29:01;34.38;;;32.28;;
56285;SDS011;42191;47.562;9.686;2023-05-07T04:31:27;34.53;;;32.45;;
56285;SDS011;42191;47.562;9.686;2023-05-07T04:33:53;35.58;;;33.30;;
56285;SDS011;42191;47.562;9.686;2023-05-07T04:36:20;34.38;;;32.35;;
56285;SDS011;42191;47.562;9.686;2023-05-07T04:38:46;34.97;;;32.88;;
56285;SDS011;42191;47.562;9.686;2023-05-07T04:41:12;32.55;;;30.65;;
56285;SDS011;42191;47.562;9.686;2023-05-07T04:43:39;32.70;;;30.70;;
56285;SDS011;42191;47.562;9.686;2023-05-07T04:46:05;35.35;;;33.25;;
56285;SDS011;42191;47.562;9.686;2023-05-07T04:48:31;34.65;;;32.55;;
56285;SDS011;42191;47.562;9.686;2023-05-07T04:50:57;34.08;;;31.88;;
56285;SDS011;42191;47.562;9.686;2023-05-07T04:53:23;34.08;;;31.98;;
56285;SDS011;42191;47.562;9.686;2023-05-07T04:55:54;35.88;;;33.50;;
56285;SDS011;42191;47.562;9.686;2023-05-07T04:58:21;33.67;;;31.57;;
56285;SDS011;42191;47.562;9.686;2023-05-07T05:00:48;35.17;;;33.08;;
56285;SDS011;42191;47.562;9.686;2023-05-07T05:03:15;34.67;;;32.58;;
56285;SDS011;42191;47.562;9.686;2023-05-07T05:05:41;34.38;;;32.22;;
56285;SDS011;42191;47.562;9.686;2023-05-07T05:08:07;34.65;;;32.35;;
56285;SDS011;42191;47.562;9.686;2023-05-07T05:10:33;34.25;;;32.17;;
56285;SDS011;42191;47.562;9.686;2023-05-07T05:12:59;34.85;;;32.75;;
56285;SDS011;42191;47.562;9.686;2023-05-07T05:15:25;34.15;;;32.13;;
56285;SDS011;42191;47.562;9.686;2023-05-07T05:17:51;34.50;;;32.40;;
56285;SDS011;42191;47.562;9.686;2023-05-07T05:20:18;35.40;;;33.30;;
56285;SDS011;42191;47.562;9.686;2023-05-07T05:22:44;32.90;;;30.92;;
56285;SDS011;42191;47.562;9.686;2023-05-07T05:25:10;32.67;;;30.77;;
56285;SDS011;42191;47.562;9.686;2023-05-07T05:27:36;34.85;;;32.75;;
56285;SDS011;42191;47.562;9.686;2023-05-07T05:30:03;34.67;;;32.53;;
56285;SDS011;42191;47.562;9.686;2023-05-07T05:32:30;32.95;;;30.98;;
56285;SDS011;42191;47.562;9.686;2023-05-07T05:34:56;33.78;;;31.63;;
56285;SDS011;42191;47.562;9.686;2023-05-07T05:37:22;31.88;;;29.98;;
56285;SDS011;42191;47.562;9.686;2023-05-07T05:39:48;33.22;;;31.23;;
56285;SDS011;42191;47.562;9.686;2023-05-07T05:42:14;34.22;;;32.20;;
56285;SDS011;42191;47.562;9.686;2023-05-07T05:44:41;33.55;;;31.55;;
56285;SDS011;42191;47.562;9.686;2023-05-07T05:47:07;33.55;;;31.50;;
56285;SDS011;42191;47.562;9.686;2023-05-07T05:49:33;33.38;;;31.38;;
56285;SDS011;42191;47.562;9.686;2023-05-07T05:52:00;33.42;;;31.42;;
56285;SDS011;42191;47.562;9.686;2023-05-07T05:54:26;31.88;;;29.80;;
56285;SDS011;42191;47.562;9.686;2023-05-07T05:56:52;34.65;;;32.55;;
56285;SDS011;42191;47.562;9.686;2023-05-07T05:59:18;33.60;;;31.55;;
56285;SDS011;42191;47.562;9.686;2023-05-07T06:01:44;34.78;;;32.53;;
56285;SDS011;42191;47.562;9.686;2023-05-07T06:04:10;33.67;;;31.67;;
56285;SDS011;42191;47.562;9.686;2023-05-07T06:06:36;33.28;;;31.27;;
56285;SDS011;42191;47.562;9.686;2023-05-07T06:09:02;32.05;;;30.15;;
56285;SDS011;42191;47.562;9.686;2023-05-07T06:11:28;35.88;;;33.67;;
56285;SDS011;42191;47.562;9.686;2023-05-07T06:13:56;31.83;;;29.90;;
56285;SDS011;42191;47.562;9.686;2023-05-07T06:16:22;34.25;;;32.25;;
56285;SDS011;42191;47.562;9.686;2023-05-07T06:18:49;30.75;;;28.88;;
56285;SDS011;42191;47.562;9.686;2023-05-07T06:21:15;34.50;;;32.40;;
56285;SDS011;42191;47.562;9.686;2023-05-07T06:23:41;33.67;;;31.67;;
56285;SDS011;42191;47.562;9.686;2023-05-07T06:26:08;32.00;;;29.95;;
56285;SDS011;42191;47.562;9.686;2023-05-07T06:28:34;33.88;;;31.85;;
56285;SDS011;42191;47.562;9.686;2023-05-07T06:33:39;34.22;;;32.03;;
56285;SDS011;42191;47.562;9.686;2023-05-07T06:36:05;34.38;;;32.28;;
56285;SDS011;42191;47.562;9.686;2023-05-07T06:38:31;34.28;;;32.22;;
56285;SDS011;42191;47.562;9.686;2023-05-07T06:40:58;32.55;;;30.55;;
56285;SDS011;42191;47.562;9.686;2023-05-07T06:43:24;31.58;;;29.67;;
56285;SDS011;42191;47.562;9.686;2023-05-07T06:45:50;33.60;;;31.50;;
56285;SDS011;42191;47.562;9.686;2023-05-07T06:48:16;31.40;;;29.50;;
56285;SDS011;42191;47.562;9.686;2023-05-07T06:50:42;31.10;;;29.25;;
56285;SDS011;42191;47.562;9.686;2023-05-07T06:53:08;31.88;;;29.77;;
56285;SDS011;42191;47.562;9.686;2023-05-07T06:55:35;33.40;;;31.35;;
56285;SDS011;42191;47.562;9.686;2023-05-07T06:58:03;33.45;;;31.35;;
56285;SDS011;42191;47.562;9.686;2023-05-07T07:00:29;32.80;;;30.80;;
56285;SDS011;42191;47.562;9.686;2023-05-07T07:02:55;30.35;;;28.58;;
56285;SDS011;42191;47.562;9.686;2023-05-07T07:05:21;31.45;;;29.58;;
56285;SDS011;42191;47.562;9.686;2023-05-07T07:07:48;32.05;;;30.13;;
56285;SDS011;42191;47.562;9.686;2023-05-07T07:10:20;31.88;;;29.98;;
56285;SDS011;42191;47.562;9.686;2023-05-07T07:12:48;32.42;;;30.25;;
56285;SDS011;42191;47.562;9.686;2023-05-07T07:15:15;31.83;;;29.80;;
56285;SDS011;42191;47.562;9.686;2023-05-07T07:17:41;34.05;;;31.95;;
56285;SDS011;42191;47.562;9.686;2023-05-07T07:20:07;32.38;;;30.38;;
56285;SDS011;42191;47.562;9.686;2023-05-07T07:22:34;33.67;;;31.55;;
56285;SDS011;42191;47.562;9.686;2023-05-07T07:25:00;33.08;;;31.08;;
56285;SDS011;42191;47.562;9.686;2023-05-07T07:27:26;31.50;;;29.52;;
56285;SDS011;42191;47.562;9.686;2023-05-07T07:29:52;32.92;;;30.92;;
56285;SDS011;42191;47.562;9.686;2023-05-07T07:32:18;32.13;;;30.10;;
56285;SDS011;42191;47.562;9.686;2023-05-07T07:34:44;31.90;;;29.92;;
56285;SDS011;42191;47.562;9.686;2023-05-07T07:37:11;32.72;;;30.73;;
56285;SDS011;42191;47.562;9.686;2023-05-07T07:39:37;32.55;;;30.63;;
56285;SDS011;42191;47.562;9.686;2023-05-07T07:42:03;32.45;;;30.45;;
56285;SDS011;42191;47.562;9.686;2023-05-07T07:44:29;30.65;;;28.63;;
56285;SDS011;42191;47.562;9.686;2023-05-07T07:46:55;31.85;;;29.95;;
56285;SDS011;42191;47.562;9.686;2023-05-07T07:49:21;33.05;;;30.95;;
56285;SDS011;42191;47.562;9.686;2023-05-07T07:51:47;32.45;;;30.45;;
56285;SDS011;42191;47.562;9.686;2023-05-07T07:54:13;31.83;;;29.92;;
56285;SDS011;42191;47.562;9.686;2023-05-07T07:56:39;30.77;;;28.98;;
56285;SDS011;42191;47.562;9.686;2023-05-07T07:59:06;30.85;;;28.98;;
56285;SDS011;42191;47.562;9.686;2023-05-07T08:01:32;32.88;;;30.88;;
56285;SDS011;42191;47.562;9.686;2023-05-07T08:03:58;32.97;;;30.98;;
56285;SDS011;42191;47.562;9.686;2023-05-07T08:06:24;31.60;;;29.65;;
56285;SDS011;42191;47.562;9.686;2023-05-07T08:08:51;31.17;;;29.15;;
56285;SDS011;42191;47.562;9.686;2023-05-07T08:11:18;32.10;;;30.20;;
56285;SDS011;42191;47.562;9.686;2023-05-07T08:13:45;32.53;;;30.58;;
56285;SDS011;42191;47.562;9.686;2023-05-07T08:16:11;31.25;;;29.35;;
56285;SDS011;42191;47.562;9.686;2023-05-07T08:18:38;32.72;;;30.73;;
56285;SDS011;42191;47.562;9.686;2023-05-07T08:21:04;32.85;;;30.85;;
56285;SDS011;42191;47.562;9.686;2023-05-07T08:23:30;31.70;;;29.73;;
56285;SDS011;42191;47.562;9.686;2023-05-07T08:25:56;32.60;;;30.58;;
56285;SDS011;42191;47.562;9.686;2023-05-07T08:28:23;31.60;;;29.55;;
56285;SDS011;42191;47.562;9.686;2023-05-07T08:30:50;32.65;;;30.60;;
56285;SDS011;42191;47.562;9.686;2023-05-07T08:33:16;32.10;;;30.17;;
56285;SDS011;42191;47.562;9.686;2023-05-07T08:35:42;31.88;;;29.55;;
56285;SDS011;42191;47.562;9.686;2023-05-07T08:38:08;32.72;;;30.67;;
56285;SDS011;42191;47.562;9.686;2023-05-07T08:40:38;32.35;;;30.35;;
56285;SDS011;42191;47.562;9.686;2023-05-07T08:43:06;31.77;;;29.77;;
56285;SDS011;42191;47.562;9.686;2023-05-07T08:45:33;32.22;;;30.13;;
56285;SDS011;42191;47.562;9.686;2023-05-07T08:48:01;31.92;;;29.80;;
56285;SDS011;42191;47.562;9.686;2023-05-07T08:50:30;31.92;;;29.83;;
56285;SDS011;42191;47.562;9.686;2023-05-07T08:52:56;32.03;;;30.02;;
56285;SDS011;42191;47.562;9.686;2023-05-07T08:55:22;31.83;;;29.75;;
56285;SDS011;42191;47.562;9.686;2023-05-07T08:57:50;32.30;;;30.20;;
56285;SDS011;42191;47.562;9.686;2023-05-07T09:00:17;32.63;;;30.42;;
56285;SDS011;42191;47.562;9.686;2023-05-07T09:02:44;30.73;;;28.67;;
56285;SDS011;42191;47.562;9.686;2023-05-07T09:05:10;31.30;;;29.35;;
56285;SDS011;42191;47.562;9.686;2023-05-07T09:07:36;31.17;;;29.08;;
56285;SDS011;42191;47.562;9.686;2023-05-07T09:10:03;30.05;;;28.25;;
56285;SDS011;42191;47.562;9.686;2023-05-07T09:12:30;32.17;;;30.08;;
56285;SDS011;42191;47.562;9.686;2023-05-07T09:14:56;30.65;;;28.75;;
56285;SDS011;42191;47.562;9.686;2023-05-07T09:17:23;30.40;;;28.45;;
56285;SDS011;42191;47.562;9.686;2023-05-07T09:19:49;31.08;;;29.13;;
56285;SDS011;42191;47.562;9.686;2023-05-07T09:22:15;31.05;;;29.13;;
56285;SDS011;42191;47.562;9.686;2023-05-07T09:24:46;30.05;;;28.05;;
56285;SDS011;42191;47.562;9.686;2023-05-07T09:27:13;29.80;;;27.90;;
56285;SDS011;42191;47.562;9.686;2023-05-07T09:29:40;30.65;;;28.83;;
56285;SDS011;42191;47.562;9.686;2023-05-07T09:32:07;29.92;;;28.13;;
56285;SDS011;42191;47.562;9.686;2023-05-07T09:34:34;30.80;;;28.90;;
56285;SDS011;42191;47.562;9.686;2023-05-07T09:37:04;28.33;;;26.60;;
56285;SDS011;42191;47.562;9.686;2023-05-07T09:39:38;30.08;;;28.17;;
56285;SDS011;42191;47.562;9.686;2023-05-07T09:42:05;31.52;;;29.63;;
56285;SDS011;42191;47.562;9.686;2023-05-07T09:44:32;31.08;;;29.10;;
56285;SDS011;42191;47.562;9.686;2023-05-07T09:46:59;29.55;;;27.75;;
56285;SDS011;42191;47.562;9.686;2023-05-07T09:49:28;30.80;;;28.60;;
56285;SDS011;42191;47.562;9.686;2023-05-07T09:51:55;30.27;;;28.38;;
56285;SDS011;42191;47.562;9.686;2023-05-07T09:54:23;30.73;;;28.88;;
56285;SDS011;42191;47.562;9.686;2023-05-07T09:56:49;30.67;;;28.77;;
56285;SDS011;42191;47.562;9.686;2023-05-07T09:59:17;30.08;;;28.13;;
56285;SDS011;42191;47.562;9.686;2023-05-07T10:01:44;29.33;;;27.52;;
56285;SDS011;42191;47.562;9.686;2023-05-07T10:04:10;30.23;;;28.23;;
56285;SDS011;42191;47.562;9.686;2023-05-07T10:06:37;31.80;;;29.80;;
56285;SDS011;42191;47.562;9.686;2023-05-07T10:09:04;29.98;;;28.13;;
56285;SDS011;42191;47.562;9.686;2023-05-07T10:11:34;30.13;;;28.23;;
56285;SDS011;42191;47.562;9.686;2023-05-07T10:14:04;31.05;;;29.05;;
56285;SDS011;42191;47.562;9.686;2023-05-07T10:16:31;29.38;;;27.58;;
56285;SDS011;42191;47.562;9.686;2023-05-07T10:19:02;28.95;;;27.25;;
56285;SDS011;42191;47.562;9.686;2023-05-07T10:21:29;28.63;;;26.92;;
56285;SDS011;42191;47.562;9.686;2023-05-07T10:24:03;29.55;;;27.65;;
56285;SDS011;42191;47.562;9.686;2023-05-07T10:26:35;28.80;;;26.88;;
56285;SDS011;42191;47.562;9.686;2023-05-07T10:29:07;29.27;;;27.38;;
56285;SDS011;42191;47.562;9.686;2023-05-07T10:34:16;27.90;;;25.88;;
56285;SDS011;42191;47.562;9.686;2023-05-07T10:36:48;28.60;;;26.88;;
56285;SDS011;42191;47.562;9.686;2023-05-07T10:39:15;28.17;;;26.48;;
56285;SDS011;42191;47.562;9.686;2023-05-07T10:41:41;28.23;;;26.52;;
56285;SDS011;42191;47.562;9.686;2023-05-07T10:44:07;27.55;;;25.85;;
56285;SDS011;42191;47.562;9.686;2023-05-07T10:46:33;28.50;;;26.58;;
56285;SDS011;42191;47.562;9.686;2023-05-07T10:51:31;27.98;;;26.08;;
56285;SDS011;42191;47.562;9.686;2023-05-07T10:56:37;28.85;;;27.15;;
56285;SDS011;42191;47.562;9.686;2023-05-07T11:04:29;28.05;;;26.35;;
56285;SDS011;42191;47.562;9.686;2023-05-07T11:12:16;28.10;;;26.42;;
56285;SDS011;42191;47.562;9.686;2023-05-07T11:15:03;28.00;;;26.23;;
56285;SDS011;42191;47.562;9.686;2023-05-07T11:20:20;27.88;;;26.15;;
56285;SDS011;42191;47.562;9.686;2023-05-07T11:23:08;27.17;;;25.55;;
56285;SDS011;42191;47.562;9.686;2023-05-07T11:26:13;26.48;;;24.67;;
56285;SDS011;42191;47.562;9.686;2023-05-07T11:28:41;27.95;;;26.25;;
56285;SDS011;42191;47.562;9.686;2023-05-07T11:31:08;27.63;;;25.88;;
56285;SDS011;42191;47.562;9.686;2023-05-07T11:33:35;28.45;;;26.75;;
56285;SDS011;42191;47.562;9.686;2023-05-07T11:36:02;26.83;;;25.05;;
56285;SDS011;42191;47.562;9.686;2023-05-07T11:38:29;27.90;;;26.20;;
56285;SDS011;42191;47.562;9.686;2023-05-07T11:40:59;28.05;;;26.35;;
56285;SDS011;42191;47.562;9.686;2023-05-07T11:43:26;27.40;;;25.60;;
56285;SDS011;42191;47.562;9.686;2023-05-07T11:45:53;28.08;;;26.30;;
56285;SDS011;42191;47.562;9.686;2023-05-07T11:48:19;27.00;;;25.40;;
56285;SDS011;42191;47.562;9.686;2023-05-07T11:50:51;28.23;;;26.52;;
56285;SDS011;42191;47.562;9.686;2023-05-07T11:53:18;28.00;;;26.30;;
56285;SDS011;42191;47.562;9.686;2023-05-07T11:55:45;27.15;;;25.55;;
56285;SDS011;42191;47.562;9.686;2023-05-07T11:58:12;28.25;;;26.45;;
56285;SDS011;42191;47.562;9.686;2023-05-07T12:00:48;26.77;;;25.08;;
56285;SDS011;42191;47.562;9.686;2023-05-07T12:03:15;28.80;;;27.05;;
56285;SDS011;42191;47.562;9.686;2023-05-07T12:05:42;28.65;;;26.85;;
56285;SDS011;42191;47.562;9.686;2023-05-07T12:08:19;28.38;;;26.58;;
56285;SDS011;42191;47.562;9.686;2023-05-07T12:10:47;26.85;;;25.15;;
56285;SDS011;42191;47.562;9.686;2023-05-07T12:13:15;27.70;;;25.77;;
56285;SDS011;42191;47.562;9.686;2023-05-07T12:15:52;28.02;;;26.23;;
56285;SDS011;42191;47.562;9.686;2023-05-07T12:18:19;27.70;;;25.90;;
56285;SDS011;42191;47.562;9.686;2023-05-07T12:20:46;28.05;;;26.25;;
56285;SDS011;42191;47.562;9.686;2023-05-07T12:23:13;28.45;;;26.75;;
56285;SDS011;42191;47.562;9.686;2023-05-07T12:25:40;27.98;;;26.27;;
56285;SDS011;42191;47.562;9.686;2023-05-07T12:28:15;28.35;;;26.48;;
56285;SDS011;42191;47.562;9.686;2023-05-07T12:30:42;28.35;;;26.48;;
56285;SDS011;42191;47.562;9.686;2023-05-07T12:33:10;27.65;;;25.95;;
56285;SDS011;42191;47.562;9.686;2023-05-07T12:35:38;27.30;;;25.58;;
56285;SDS011;42191;47.562;9.686;2023-05-07T12:38:09;27.63;;;25.83;;
56285;SDS011;42191;47.562;9.686;2023-05-07T12:40:38;28.10;;;26.40;;
56285;SDS011;42191;47.562;9.686;2023-05-07T12:43:05;27.00;;;25.20;;
56285;SDS011;42191;47.562;9.686;2023-05-07T12:45:36;27.73;;;25.92;;
56285;SDS011;42191;47.562;9.686;2023-05-07T12:48:03;26.80;;;25.13;;
56285;SDS011;42191;47.562;9.686;2023-05-07T12:50:33;27.27;;;25.65;;
56285;SDS011;42191;47.562;9.686;2023-05-07T12:52:59;26.95;;;25.15;;
56285;SDS011;42191;47.562;9.686;2023-05-07T12:55:30;28.38;;;26.55;;
56285;SDS011;42191;47.562;9.686;2023-05-07T12:57:57;27.00;;;25.40;;
56285;SDS011;42191;47.562;9.686;2023-05-07T13:00:34;28.77;;;26.95;;
56285;SDS011;42191;47.562;9.686;2023-05-07T13:03:01;28.98;;;27.17;;
56285;SDS011;42191;47.562;9.686;2023-05-07T13:05:27;26.98;;;25.27;;
56285;SDS011;42191;47.562;9.686;2023-05-07T13:07:53;26.80;;;25.15;;
56285;SDS011;42191;47.562;9.686;2023-05-07T13:10:21;28.80;;;26.98;;
56285;SDS011;42191;47.562;9.686;2023-05-07T13:12:48;26.60;;;24.95;;
56285;SDS011;42191;47.562;9.686;2023-05-07T13:15:15;27.23;;;25.38;;
56285;SDS011;42191;47.562;9.686;2023-05-07T13:17:41;25.75;;;24.15;;
56285;SDS011;42191;47.562;9.686;2023-05-07T13:20:10;25.95;;;24.15;;
56285;SDS011;42191;47.562;9.686;2023-05-07T13:22:37;25.55;;;23.95;;
56285;SDS011;42191;47.562;9.686;2023-05-07T13:25:04;25.25;;;23.52;;
56285;SDS011;42191;47.562;9.686;2023-05-07T13:27:31;25.42;;;23.75;;
56285;SDS011;42191;47.562;9.686;2023-05-07T13:30:00;24.63;;;23.05;;
56285;SDS011;42191;47.562;9.686;2023-05-07T13:32:26;24.90;;;23.40;;
56285;SDS011;42191;47.562;9.686;2023-05-07T13:34:52;25.10;;;23.45;;
56285;SDS011;42191;47.562;9.686;2023-05-07T13:37:18;24.05;;;22.52;;
56285;SDS011;42191;47.562;9.686;2023-05-07T13:39:45;24.55;;;23.02;;
56285;SDS011;42191;47.562;9.686;2023-05-07T13:42:11;24.35;;;22.85;;
56285;SDS011;42191;47.562;9.686;2023-05-07T13:44:37;24.30;;;22.50;;
56285;SDS011;42191;47.562;9.686;2023-05-07T13:47:03;23.83;;;22.33;;
56285;SDS011;42191;47.562;9.686;2023-05-07T13:49:29;22.83;;;21.30;;
56285;SDS011;42191;47.562;9.686;2023-05-07T13:51:55;23.27;;;21.85;;
56285;SDS011;42191;47.562;9.686;2023-05-07T13:54:22;24.15;;;22.52;;
56285;SDS011;42191;47.562;9.686;2023-05-07T13:56:48;23.90;;;22.40;;
56285;SDS011;42191;47.562;9.686;2023-05-07T13:59:14;24.85;;;23.15;;
56285;SDS011;42191;47.562;9.686;2023-05-07T14:01:40;24.77;;;23.10;;
56285;SDS011;42191;47.562;9.686;2023-05-07T14:04:06;24.25;;;22.75;;
56285;SDS011;42191;47.562;9.686;2023-05-07T14:06:32;25.77;;;23.98;;
56285;SDS011;42191;47.562;9.686;2023-05-07T14:08:58;25.70;;;24.00;;
56285;SDS011;42191;47.562;9.686;2023-05-07T14:11:25;26.65;;;24.92;;
56285;SDS011;42191;47.562;9.686;2023-05-07T14:13:51;26.60;;;25.00;;
56285;SDS011;42191;47.562;9.686;2023-05-07T14:16:17;26.88;;;25.17;;
56285;SDS011;42191;47.562;9.686;2023-05-07T14:18:43;27.38;;;25.58;;
56285;SDS011;42191;47.562;9.686;2023-05-07T14:21:09;27.02;;;25.27;;
56285;SDS011;42191;47.562;9.686;2023-05-07T14:23:35;26.73;;;25.02;;
56285;SDS011;42191;47.562;9.686;2023-05-07T14:26:01;28.95;;;27.05;;
56285;SDS011;42191;47.562;9.686;2023-05-07T14:28:28;27.42;;;25.73;;
56285;SDS011;42191;47.562;9.686;2023-05-07T14:30:54;27.85;;;26.00;;
56285;SDS011;42191;47.562;9.686;2023-05-07T14:33:20;28.77;;;26.88;;
56285;SDS011;42191;47.562;9.686;2023-05-07T14:35:46;28.65;;;26.75;;
56285;SDS011;42191;47.562;9.686;2023-05-07T14:38:14;26.52;;;24.92;;
56285;SDS011;42191;47.562;9.686;2023-05-07T14:40:40;29.30;;;27.40;;
56285;SDS011;42191;47.562;9.686;2023-05-07T14:43:06;28.52;;;26.80;;